sensor_id;sensor_type;location;lat;lon;timestamp;pressure;altitude;pressure_sealevel;temperature;humidity
30724;BME280;17473;52.286;20.930;2023-03-23T00:02:30;99600.53;;;10.10;89.03
30724;BME280;17473;52.286;20.930;2023-03-23T00:05:02;99596.31;;;10.16;88.73
30724;BME280;17473;52.286;20.930;2023-03-23T00:07:29;99600.72;;;10.17;88.68
30724;BME280;17473;52.286;20.930;2023-03-23T00:09:55;99596.28;;;10.15;88.64
30724;BME280;17473;52.286;20.930;2023-03-23T00:12:27;99590.41;;;10.27;87.96
30724;BME280;17473;52.286;20.930;2023-03-23T00:15:06;99588.53;;;10.23;88.20
30724;BME280;17473;52.286;20.930;2023-03-23T00:17:33;99591.94;;;10.17;88.50
30724;BME280;17473;52.286;20.930;2023-03-23T00:20:00;99589.22;;;10.14;88.54
30724;BME280;17473;52.286;20.930;2023-03-23T00:22:28;99588.53;;;10.23;88.41
30724;BME280;17473;52.286;20.930;2023-03-23T00:24:54;99589.34;;;10.18;88.15
30724;BME280;17473;52.286;20.930;2023-03-23T00:27:22;99588.19;;;10.07;88.86
30724;BME280;17473;52.286;20.930;2023-03-23T00:29:50;99579.53;;;10.13;88.54
30724;BME280;17473;52.286;20.930;2023-03-23T00:32:21;99579.66;;;10.19;88.24
30724;BME280;17473;52.286;20.930;2023-03-23T00:34:57;99575.22;;;10.18;88.16
30724;BME280;17473;52.286;20.930;2023-03-23T00:37:27;99568.03;;;10.11;88.55
30724;BME280;17473;52.286;20.930;2023-03-23T00:39:53;99580.41;;;10.13;88.32
30724;BME280;17473;52.286;20.930;2023-03-23T00:42:23;99570.84;;;10.17;87.99
30724;BME280;17473;52.286;20.930;2023-03-23T00:44:49;99575.13;;;10.13;88.17
30724;BME280;17473;52.286;20.930;2023-03-23T00:47:15;99566.31;;;10.11;88.22
30724;BME280;17473;52.286;20.930;2023-03-23T00:49:43;99569.72;;;10.07;88.22
30724;BME280;17473;52.286;20.930;2023-03-23T00:52:10;99561.03;;;10.11;87.75
30724;BME280;17473;52.286;20.930;2023-03-23T00:54:36;99571.63;;;10.14;88.29
30724;BME280;17473;52.286;20.930;2023-03-23T00:57:04;99570.78;;;10.15;88.05
30724;BME280;17473;52.286;20.930;2023-03-23T00:59:31;99563.69;;;10.11;88.42
30724;BME280;17473;52.286;20.930;2023-03-23T01:01:57;99558.41;;;10.11;88.29
30724;BME280;17473;52.286;20.930;2023-03-23T01:04:23;99558.44;;;10.14;88.31
30724;BME280;17473;52.286;20.930;2023-03-23T01:06:50;99560.63;;;10.32;87.52
30724;BME280;17473;52.286;20.930;2023-03-23T01:09:18;99557.78;;;10.23;87.84
30724;BME280;17473;52.286;20.930;2023-03-23T01:11:48;99553.22;;;10.16;87.81
30724;BME280;17473;52.286;20.930;2023-03-23T01:14:16;99554.31;;;10.26;87.50
30724;BME280;17473;52.286;20.930;2023-03-23T01:16:42;99550.59;;;10.16;88.02
30724;BME280;17473;52.286;20.930;2023-03-23T01:19:08;99559.28;;;10.13;88.42
30724;BME280;17473;52.286;20.930;2023-03-23T01:21:36;99557.78;;;10.23;88.12
30724;BME280;17473;52.286;20.930;2023-03-23T01:24:02;99550.72;;;10.22;88.04
30724;BME280;17473;52.286;20.930;2023-03-23T01:26:29;99557.81;;;10.25;87.89
30724;BME280;17473;52.286;20.930;2023-03-23T01:28:55;99561.19;;;10.19;87.97
30724;BME280;17473;52.286;20.930;2023-03-23T01:31:24;99566.53;;;10.22;87.68
30724;BME280;17473;52.286;20.930;2023-03-23T01:33:51;99566.41;;;10.16;88.21
30724;BME280;17473;52.286;20.930;2023-03-23T01:36:27;99563.69;;;10.13;88.19
30724;BME280;17473;52.286;20.930;2023-03-23T01:38:55;99559.47;;;10.21;88.11
30724;BME280;17473;52.286;20.930;2023-03-23T01:41:21;99557.69;;;10.20;88.03
30724;BME280;17473;52.286;20.930;2023-03-23T01:44:59;99557.88;;;10.28;87.55
30724;BME280;17473;52.286;20.930;2023-03-23T01:46:53;99561.16;;;10.17;88.15
30724;BME280;17473;52.286;20.930;2023-03-23T01:49:37;99550.69;;;10.21;87.92
30724;BME280;17473;52.286;20.930;2023-03-23T01:52:18;99542.88;;;10.25;87.69
30724;BME280;17473;52.286;20.930;2023-03-23T01:54:47;99552.41;;;10.18;88.15
30724;BME280;17473;52.286;20.930;2023-03-23T01:57:19;99536.53;;;10.17;88.20
30724;BME280;17473;52.286;20.930;2023-03-23T01:59:53;99535.94;;;10.30;87.97
30724;BME280;17473;52.286;20.930;2023-03-23T02:02:22;99538.41;;;10.23;87.89
30724;BME280;17473;52.286;20.930;2023-03-23T02:04:49;99535.56;;;10.13;88.54
30724;BME280;17473;52.286;20.930;2023-03-23T02:07:19;99533.84;;;10.15;88.50
30724;BME280;17473;52.286;20.930;2023-03-23T02:09:46;99533.94;;;10.18;88.51
30724;BME280;17473;52.286;20.930;2023-03-23T02:12:12;99530.34;;;10.16;88.42
30724;BME280;17473;52.286;20.930;2023-03-23T02:14:38;99523.25;;;10.12;88.74
30724;BME280;17473;52.286;20.930;2023-03-23T02:25:53;99518.13;;;10.20;88.58
30724;BME280;17473;52.286;20.930;2023-03-23T02:28:40;99509.44;;;10.24;88.44
30724;BME280;17473;52.286;20.930;2023-03-23T02:34:25;99498.81;;;10.21;88.59
30724;BME280;17473;52.286;20.930;2023-03-23T02:37:08;99513.28;;;10.39;87.89
30724;BME280;17473;52.286;20.930;2023-03-23T02:39:54;99514.66;;;10.23;88.35
30724;BME280;17473;52.286;20.930;2023-03-23T02:42:27;99509.44;;;10.24;88.56
30724;BME280;17473;52.286;20.930;2023-03-23T02:44:56;99504.19;;;10.27;88.53
30724;BME280;17473;52.286;20.930;2023-03-23T02:47:26;99511.31;;;10.30;88.06
30724;BME280;17473;52.286;20.930;2023-03-23T02:49:56;99520.13;;;10.32;88.29
30724;BME280;17473;52.286;20.930;2023-03-23T02:52:31;99515.16;;;10.46;87.51
30724;BME280;17473;52.286;20.930;2023-03-23T02:54:59;99511.78;;;10.52;87.32
30724;BME280;17473;52.286;20.930;2023-03-23T02:57:26;99516.91;;;10.44;87.26
30724;BME280;17473;52.286;20.930;2023-03-23T02:59:53;99520.19;;;10.33;87.98
30724;BME280;17473;52.286;20.930;2023-03-23T03:02:26;99524.50;;;10.30;88.13
30724;BME280;17473;52.286;20.930;2023-03-23T03:05:05;99512.09;;;10.26;88.49
30724;BME280;17473;52.286;20.930;2023-03-23T03:08:09;99514.00;;;10.33;88.09
30724;BME280;17473;52.286;20.930;2023-03-23T03:10:46;99511.22;;;10.25;88.43
30724;BME280;17473;52.286;20.930;2023-03-23T03:19:23;99530.59;;;10.27;87.99
30724;BME280;17473;52.286;20.930;2023-03-23T03:21:53;99512.19;;;10.30;88.00
30724;BME280;17473;52.286;20.930;2023-03-23T03:24:22;99515.78;;;10.34;88.04
30724;BME280;17473;52.286;20.930;2023-03-23T03:26:52;99517.59;;;10.37;87.85
30724;BME280;17473;52.286;20.930;2023-03-23T03:29:28;99516.63;;;10.33;87.53
30724;BME280;17473;52.286;20.930;2023-03-23T03:31:56;99519.34;;;10.36;87.98
30724;BME280;17473;52.286;20.930;2023-03-23T03:34:24;99535.72;;;10.20;88.37
30724;BME280;17473;52.286;20.930;2023-03-23T03:36:54;99533.06;;;10.20;88.47
30724;BME280;17473;52.286;20.930;2023-03-23T03:39:25;99536.66;;;10.22;88.60
30724;BME280;17473;52.286;20.930;2023-03-23T03:41:52;99537.59;;;10.25;88.20
30724;BME280;17473;52.286;20.930;2023-03-23T03:44:18;99527.25;;;10.36;87.66
30724;BME280;17473;52.286;20.930;2023-03-23T03:46:44;99532.97;;;10.15;88.72
30724;BME280;17473;52.286;20.930;2023-03-23T03:49:11;99533.06;;;10.20;88.36
30724;BME280;17473;52.286;20.930;2023-03-23T03:51:41;99522.16;;;10.04;89.01
30724;BME280;17473;52.286;20.930;2023-03-23T03:54:07;99517.78;;;10.05;89.01
30724;BME280;17473;52.286;20.930;2023-03-23T03:56:34;99514.22;;;10.02;89.24
30724;BME280;17473;52.286;20.930;2023-03-23T03:59:03;99519.47;;;9.99;89.30
30724;BME280;17473;52.286;20.930;2023-03-23T04:01:29;99507.03;;;9.94;89.68
30724;BME280;17473;52.286;20.930;2023-03-23T04:03:55;99498.28;;;9.96;89.52
30724;BME280;17473;52.286;20.930;2023-03-23T04:06:22;99503.44;;;9.90;89.57
30724;BME280;17473;52.286;20.930;2023-03-23T04:08:48;99512.19;;;9.89;89.87
30724;BME280;17473;52.286;20.930;2023-03-23T04:11:15;99509.50;;;9.87;89.96
30724;BME280;17473;52.286;20.930;2023-03-23T04:13:41;99508.53;;;9.84;89.84
30724;BME280;17473;52.286;20.930;2023-03-23T04:16:07;99503.25;;;9.84;89.90
30724;BME280;17473;52.286;20.930;2023-03-23T04:18:35;99512.09;;;9.84;90.03
30724;BME280;17473;52.286;20.930;2023-03-23T04:21:02;99513.69;;;9.78;90.43
30724;BME280;17473;52.286;20.930;2023-03-23T04:23:30;99513.16;;;9.93;89.82
30724;BME280;17473;52.286;20.930;2023-03-23T04:25:59;99504.22;;;9.87;89.51
30724;BME280;17473;52.286;20.930;2023-03-23T04:28:26;99502.53;;;9.90;89.35
30724;BME280;17473;52.286;20.930;2023-03-23T04:30:54;99508.44;;;9.79;90.11
30724;BME280;17473;52.286;20.930;2023-03-23T04:33:25;99511.06;;;9.79;89.93
30724;BME280;17473;52.286;20.930;2023-03-23T04:35:54;99500.41;;;9.75;90.17
30724;BME280;17473;52.286;20.930;2023-03-23T04:38:22;99501.38;;;9.78;89.99
30724;BME280;17473;52.286;20.930;2023-03-23T04:40:51;99507.47;;;9.76;89.79
30724;BME280;17473;52.286;20.930;2023-03-23T04:43:24;99508.38;;;9.76;89.97
30724;BME280;17473;52.286;20.930;2023-03-23T04:45:54;99505.91;;;9.84;89.10
30724;BME280;17473;52.286;20.930;2023-03-23T04:48:29;99499.81;;;9.86;88.95
30724;BME280;17473;52.286;20.930;2023-03-23T04:50:56;99498.91;;;9.84;89.04
30724;BME280;17473;52.286;20.930;2023-03-23T04:53:25;99496.31;;;9.87;89.17
30724;BME280;17473;52.286;20.930;2023-03-23T04:55:51;99503.66;;;10.01;88.30
30724;BME280;17473;52.286;20.930;2023-03-23T04:58:17;99491.00;;;9.86;89.05
30724;BME280;17473;52.286;20.930;2023-03-23T05:00:43;99496.41;;;9.92;88.75
30724;BME280;17473;52.286;20.930;2023-03-23T05:03:19;99486.16;;;10.06;88.13
30724;BME280;17473;52.286;20.930;2023-03-23T05:05:46;99486.47;;;10.20;87.14
30724;BME280;17473;52.286;20.930;2023-03-23T05:08:22;99496.59;;;10.41;85.98
30724;BME280;17473;52.286;20.930;2023-03-23T05:11:07;99485.34;;;10.48;85.19
30724;BME280;17473;52.286;20.930;2023-03-23T05:13:33;99489.31;;;10.31;85.90
30724;BME280;17473;52.286;20.930;2023-03-23T05:16:04;99481.41;;;10.31;86.08
30724;BME280;17473;52.286;20.930;2023-03-23T05:18:30;99485.16;;;10.41;85.89
30724;BME280;17473;52.286;20.930;2023-03-23T05:21:03;99485.47;;;10.56;84.99
30724;BME280;17473;52.286;20.930;2023-03-23T05:23:30;99485.44;;;10.53;84.29
30724;BME280;17473;52.286;20.930;2023-03-23T05:25:59;99484.25;;;10.40;85.15
30724;BME280;17473;52.286;20.930;2023-03-23T05:28:28;99482.56;;;10.42;85.27
30724;BME280;17473;52.286;20.930;2023-03-23T05:30:57;99488.84;;;10.47;84.94
30724;BME280;17473;52.286;20.930;2023-03-23T05:33:23;99478.38;;;10.52;84.31
30724;BME280;17473;52.286;20.930;2023-03-23T05:35:49;99483.75;;;10.57;84.26
30724;BME280;17473;52.286;20.930;2023-03-23T05:38:16;99484.50;;;10.51;84.47
30724;BME280;17473;52.286;20.930;2023-03-23T05:40:42;99490.00;;;10.63;83.55
30724;BME280;17473;52.286;20.930;2023-03-23T05:43:09;99491.75;;;10.63;83.96
30724;BME280;17473;52.286;20.930;2023-03-23T05:45:35;99499.88;;;10.74;83.65
30724;BME280;17473;52.286;20.930;2023-03-23T05:48:01;99498.88;;;10.67;83.68
30724;BME280;17473;52.286;20.930;2023-03-23T05:50:27;99493.97;;;10.87;83.10
30724;BME280;17473;52.286;20.930;2023-03-23T05:52:55;99492.28;;;10.91;82.52
30724;BME280;17473;52.286;20.930;2023-03-23T05:55:21;99497.66;;;10.95;81.74
30724;BME280;17473;52.286;20.930;2023-03-23T05:57:47;99494.41;;;11.10;81.44
30724;BME280;17473;52.286;20.930;2023-03-23T06:00:13;99506.81;;;11.16;81.36
30724;BME280;17473;52.286;20.930;2023-03-23T06:02:41;99504.38;;;11.28;80.22
30724;BME280;17473;52.286;20.930;2023-03-23T06:05:11;99502.81;;;11.41;80.15
30724;BME280;17473;52.286;20.930;2023-03-23T06:07:37;99505.03;;;11.69;78.14
30724;BME280;17473;52.286;20.930;2023-03-23T06:10:05;99511.19;;;11.68;78.12
30724;BME280;17473;52.286;20.930;2023-03-23T06:12:32;99513.19;;;11.84;77.42
30724;BME280;17473;52.286;20.930;2023-03-23T06:14:59;99501.38;;;12.19;75.97
30724;BME280;17473;52.286;20.930;2023-03-23T06:17:25;99506.72;;;13.02;72.65
30724;BME280;17473;52.286;20.930;2023-03-23T06:19:51;99509.19;;;12.87;72.41
30724;BME280;17473;52.286;20.930;2023-03-23T06:22:17;99497.47;;;12.63;73.12
30724;BME280;17473;52.286;20.930;2023-03-23T06:24:44;99492.28;;;12.74;72.73
30724;BME280;17473;52.286;20.930;2023-03-23T06:27:11;99508.66;;;13.19;71.56
30724;BME280;17473;52.286;20.930;2023-03-23T06:29:37;99507.41;;;13.86;68.36
30724;BME280;17473;52.286;20.930;2023-03-23T06:32:04;99513.91;;;14.33;66.76
30724;BME280;17473;52.286;20.930;2023-03-23T06:34:31;99507.97;;;15.39;62.74
30724;BME280;17473;52.286;20.930;2023-03-23T06:36:58;99505.31;;;15.22;62.31
30724;BME280;17473;52.286;20.930;2023-03-23T06:39:24;99512.34;;;14.88;63.00
30724;BME280;17473;52.286;20.930;2023-03-23T06:41:50;99504.34;;;14.77;63.40
30724;BME280;17473;52.286;20.930;2023-03-23T06:44:17;99498.16;;;14.93;62.47
30724;BME280;17473;52.286;20.930;2023-03-23T06:46:43;99495.47;;;16.19;58.75
30724;BME280;17473;52.286;20.930;2023-03-23T06:49:09;99490.91;;;16.50;56.90
30724;BME280;17473;52.286;20.930;2023-03-23T06:51:36;99501.78;;;15.87;58.82
30724;BME280;17473;52.286;20.930;2023-03-23T06:54:04;99496.41;;;15.94;58.49
30724;BME280;17473;52.286;20.930;2023-03-23T06:56:31;99504.25;;;16.50;56.74
30724;BME280;17473;52.286;20.930;2023-03-23T06:58:57;99502.41;;;16.55;56.50
30724;BME280;17473;52.286;20.930;2023-03-23T07:01:23;99506.84;;;16.61;56.39
30724;BME280;17473;52.286;20.930;2023-03-23T07:03:49;99509.38;;;16.89;55.38
30724;BME280;17473;52.286;20.930;2023-03-23T07:06:15;99514.72;;;16.81;55.14
30724;BME280;17473;52.286;20.930;2023-03-23T07:08:42;99504.56;;;17.44;52.83
30724;BME280;17473;52.286;20.930;2023-03-23T07:11:08;99509.06;;;18.32;50.32
30724;BME280;17473;52.286;20.930;2023-03-23T07:13:35;99507.41;;;18.95;48.61
30724;BME280;17473;52.286;20.930;2023-03-23T07:16:05;99505.72;;;18.83;48.53
30724;BME280;17473;52.286;20.930;2023-03-23T07:18:32;99512.78;;;19.51;46.95
30724;BME280;17473;52.286;20.930;2023-03-23T07:20:59;99514.63;;;19.48;47.04
30724;BME280;17473;52.286;20.930;2023-03-23T07:23:25;99519.75;;;19.04;47.86
30724;BME280;17473;52.286;20.930;2023-03-23T07:25:52;99512.09;;;18.74;48.07
30724;BME280;17473;52.286;20.930;2023-03-23T07:28:19;99515.66;;;18.76;48.17
30724;BME280;17473;52.286;20.930;2023-03-23T07:30:45;99516.31;;;18.96;47.95
30724;BME280;17473;52.286;20.930;2023-03-23T07:33:12;99515.34;;;20.09;44.93
30724;BME280;17473;52.286;20.930;2023-03-23T07:35:38;99511.56;;;21.80;41.68
30724;BME280;17473;52.286;20.930;2023-03-23T07:38:05;99510.41;;;22.86;39.16
30724;BME280;17473;52.286;20.930;2023-03-23T07:40:32;99506.41;;;23.29;38.57
30724;BME280;17473;52.286;20.930;2023-03-23T07:43:00;99501.38;;;23.17;38.23
30724;BME280;17473;52.286;20.930;2023-03-23T07:45:27;99499.09;;;25.09;35.67
30724;BME280;17473;52.286;20.930;2023-03-23T07:47:53;99502.31;;;24.23;36.07
30724;BME280;17473;52.286;20.930;2023-03-23T07:50:20;99509.41;;;22.90;38.17
30724;BME280;17473;52.286;20.930;2023-03-23T07:52:57;99505.59;;;23.54;37.39
30724;BME280;17473;52.286;20.930;2023-03-23T07:55:25;99515.66;;;21.96;39.07
30724;BME280;17473;52.286;20.930;2023-03-23T07:57:53;99501.38;;;23.17;37.25
30724;BME280;17473;52.286;20.930;2023-03-23T08:00:22;99503.75;;;25.27;33.80
30724;BME280;17473;52.286;20.930;2023-03-23T08:02:55;99496.06;;;24.47;34.93
30724;BME280;17473;52.286;20.930;2023-03-23T08:05:22;99500.25;;;23.80;36.09
30724;BME280;17473;52.286;20.930;2023-03-23T08:07:49;99498.63;;;22.60;37.59
30724;BME280;17473;52.286;20.930;2023-03-23T08:10:16;99504.72;;;21.69;38.98
30724;BME280;17473;52.286;20.930;2023-03-23T08:12:44;99493.44;;;21.52;39.47
30724;BME280;17473;52.286;20.930;2023-03-23T08:15:13;99492.69;;;21.47;39.75
30724;BME280;17473;52.286;20.930;2023-03-23T08:17:41;99484.06;;;22.04;38.89
30724;BME280;17473;52.286;20.930;2023-03-23T08:20:09;99481.09;;;22.47;38.15
30724;BME280;17473;52.286;20.930;2023-03-23T08:22:48;99483.78;;;21.82;39.17
30724;BME280;17473;52.286;20.930;2023-03-23T08:25:15;99477.75;;;21.36;39.84
30724;BME280;17473;52.286;20.930;2023-03-23T08:27:44;99479.22;;;20.71;40.85
30724;BME280;17473;52.286;20.930;2023-03-23T08:30:17;99462.28;;;19.80;42.92
30724;BME280;17473;52.286;20.930;2023-03-23T08:32:45;99455.84;;;19.93;42.82
30724;BME280;17473;52.286;20.930;2023-03-23T08:35:13;99462.22;;;19.33;43.87
30724;BME280;17473;52.286;20.930;2023-03-23T08:37:41;99469.94;;;19.50;43.63
30724;BME280;17473;52.286;20.930;2023-03-23T08:40:10;99461.63;;;19.67;43.57
30724;BME280;17473;52.286;20.930;2023-03-23T08:42:38;99458.84;;;19.73;43.54
30724;BME280;17473;52.286;20.930;2023-03-23T08:45:07;99454.78;;;20.00;43.02
30724;BME280;17473;52.286;20.930;2023-03-23T08:47:35;99468.19;;;18.94;45.26
30724;BME280;17473;52.286;20.930;2023-03-23T08:50:03;99473.84;;;18.71;45.49
30724;BME280;17473;52.286;20.930;2023-03-23T08:52:30;99458.56;;;18.10;46.63
30724;BME280;17473;52.286;20.930;2023-03-23T08:54:56;99466.72;;;17.96;47.05
30724;BME280;17473;52.286;20.930;2023-03-23T08:57:24;99468.59;;;17.87;47.48
30724;BME280;17473;52.286;20.930;2023-03-23T08:59:51;99468.31;;;18.14;47.31
30724;BME280;17473;52.286;20.930;2023-03-23T09:02:20;99473.97;;;17.82;47.84
30724;BME280;17473;52.286;20.930;2023-03-23T09:04:46;99475.66;;;17.92;47.72
30724;BME280;17473;52.286;20.930;2023-03-23T09:07:13;99476.78;;;17.68;48.52
30724;BME280;17473;52.286;20.930;2023-03-23T09:09:41;99472.25;;;17.76;48.21
30724;BME280;17473;52.286;20.930;2023-03-23T09:12:10;99474.13;;;17.68;48.17
30724;BME280;17473;52.286;20.930;2023-03-23T09:14:38;99465.97;;;17.80;48.08
30724;BME280;17473;52.286;20.930;2023-03-23T09:17:05;99461.38;;;17.95;48.10
30724;BME280;17473;52.286;20.930;2023-03-23T09:19:34;99453.59;;;17.75;47.77
30724;BME280;17473;52.286;20.930;2023-03-23T09:22:01;99470.44;;;17.77;47.44
30724;BME280;17473;52.286;20.930;2023-03-23T09:24:27;99461.78;;;17.55;47.81
30724;BME280;17473;52.286;20.930;2023-03-23T09:26:54;99468.09;;;17.43;47.92
30724;BME280;17473;52.286;20.930;2023-03-23T09:29:20;99458.34;;;17.40;48.22
30724;BME280;17473;52.286;20.930;2023-03-23T09:31:47;99457.38;;;17.49;47.94
30724;BME280;17473;52.286;20.930;2023-03-23T09:34:14;99461.63;;;17.68;47.28
30724;BME280;17473;52.286;20.930;2023-03-23T09:36:43;99462.78;;;17.40;48.06
30724;BME280;17473;52.286;20.930;2023-03-23T09:39:09;99459.06;;;17.59;47.75
30724;BME280;17473;52.286;20.930;2023-03-23T09:42:35;99451.06;;;17.59;47.81
30724;BME280;17473;52.286;20.930;2023-03-23T09:47:48;99437.66;;;17.67;47.06
30724;BME280;17473;52.286;20.930;2023-03-23T09:50:21;99417.81;;;17.90;46.68
30724;BME280;17473;52.286;20.930;2023-03-23T09:55:37;99426.41;;;18.84;44.80
30724;BME280;17473;52.286;20.930;2023-03-23T09:58:33;99430.41;;;18.53;44.59
30724;BME280;17473;52.286;20.930;2023-03-23T10:01:19;99424.59;;;18.84;43.34
30724;BME280;17473;52.286;20.930;2023-03-23T10:03:47;99425.13;;;19.63;42.15
30724;BME280;17473;52.286;20.930;2023-03-23T10:06:17;99430.78;;;20.38;41.49
30724;BME280;17473;52.286;20.930;2023-03-23T10:08:52;99420.19;;;20.74;40.21
30724;BME280;17473;52.286;20.930;2023-03-23T10:22:25;99398.44;;;21.57;35.95
30724;BME280;17473;52.286;20.930;2023-03-23T10:28:13;99396.59;;;22.24;35.55
30724;BME280;17473;52.286;20.930;2023-03-23T10:30:55;99397.81;;;22.14;35.03
30724;BME280;17473;52.286;20.930;2023-03-23T10:33:49;99396.97;;;22.43;34.81
30724;BME280;17473;52.286;20.930;2023-03-23T10:36:37;99386.16;;;22.45;34.77
30724;BME280;17473;52.286;20.930;2023-03-23T10:39:17;99395.47;;;22.01;35.01
30724;BME280;17473;52.286;20.930;2023-03-23T10:41:44;99398.88;;;22.40;34.81
30724;BME280;17473;52.286;20.930;2023-03-23T10:44:22;99389.16;;;22.32;35.12
30724;BME280;17473;52.286;20.930;2023-03-23T10:47:06;99397.81;;;22.44;34.54
30724;BME280;17473;52.286;20.930;2023-03-23T10:49:58;99403.78;;;21.92;35.18
30724;BME280;17473;52.286;20.930;2023-03-23T10:52:39;99400.22;;;22.23;35.51
30724;BME280;17473;52.286;20.930;2023-03-23T10:57:37;99396.75;;;22.49;35.48
30724;BME280;17473;52.286;20.930;2023-03-23T11:00:24;99400.94;;;22.60;35.13
30724;BME280;17473;52.286;20.930;2023-03-23T11:05:44;99390.16;;;22.30;35.30
30724;BME280;17473;52.286;20.930;2023-03-23T11:08:25;99390.81;;;22.07;35.09
30724;BME280;17473;52.286;20.930;2023-03-23T11:10:57;99388.63;;;21.58;35.73
30724;BME280;17473;52.286;20.930;2023-03-23T11:13:31;99378.38;;;21.72;35.72
30724;BME280;17473;52.286;20.930;2023-03-23T11:15:58;99377.44;;;21.73;35.99
30724;BME280;17473;52.286;20.930;2023-03-23T11:18:43;99373.53;;;21.52;35.96
30724;BME280;17473;52.286;20.930;2023-03-23T11:21:12;99377.81;;;21.60;35.88
30724;BME280;17473;52.286;20.930;2023-03-23T11:23:43;99369.38;;;22.05;35.18
30724;BME280;17473;52.286;20.930;2023-03-23T11:26:35;99364.28;;;22.56;34.18
30724;BME280;17473;52.286;20.930;2023-03-23T11:31:50;99352.75;;;23.07;33.56
30724;BME280;17473;52.286;20.930;2023-03-23T11:34:31;99356.00;;;22.63;33.85
30724;BME280;17473;52.286;20.930;2023-03-23T11:37:08;99358.66;;;23.19;33.24
30724;BME280;17473;52.286;20.930;2023-03-23T11:39:57;99343.47;;;22.89;33.40
30724;BME280;17473;52.286;20.930;2023-03-23T11:45:46;99325.38;;;22.67;33.59
30724;BME280;17473;52.286;20.930;2023-03-23T11:54:00;99313.03;;;22.60;33.83
30724;BME280;17473;52.286;20.930;2023-03-23T11:56:35;99322.25;;;22.81;33.78
30724;BME280;17473;52.286;20.930;2023-03-23T11:59:09;99327.31;;;22.34;34.06
30724;BME280;17473;52.286;20.930;2023-03-23T12:01:49;99310.59;;;21.94;34.42
30724;BME280;17473;52.286;20.930;2023-03-23T12:05:10;99305.91;;;22.01;34.69
30724;BME280;17473;52.286;20.930;2023-03-23T12:32:20;99291.34;;;20.79;37.38
30724;BME280;17473;52.286;20.930;2023-03-23T12:35:01;99293.06;;;20.82;37.80
30724;BME280;17473;52.286;20.930;2023-03-23T12:43:52;99297.34;;;20.89;37.87
30724;BME280;17473;52.286;20.930;2023-03-23T12:46:52;99283.06;;;20.88;37.41
30724;BME280;17473;52.286;20.930;2023-03-23T12:49:58;99289.69;;;20.75;38.06
30724;BME280;17473;52.286;20.930;2023-03-23T12:53:03;99281.97;;;20.95;38.32
30724;BME280;17473;52.286;20.930;2023-03-23T12:55:45;99285.22;;;21.08;37.75
30724;BME280;17473;52.286;20.930;2023-03-23T12:58:32;99274.94;;;20.91;37.93
30724;BME280;17473;52.286;20.930;2023-03-23T13:01:13;99286.06;;;21.10;38.10
30724;BME280;17473;52.286;20.930;2023-03-23T13:11:47;99279.84;;;21.08;37.98
30724;BME280;17473;52.286;20.930;2023-03-23T13:14:43;99273.06;;;20.95;38.07
30724;BME280;17473;52.286;20.930;2023-03-23T13:17:41;99271.91;;;20.69;38.39
30724;BME280;17473;52.286;20.930;2023-03-23T13:20:40;99280.44;;;20.49;39.04
30724;BME280;17473;52.286;20.930;2023-03-23T13:23:28;99279.97;;;20.68;39.12
30724;BME280;17473;52.286;20.930;2023-03-23T13:26:09;99279.94;;;20.31;40.02
30724;BME280;17473;52.286;20.930;2023-03-23T13:31:41;99278.66;;;20.12;40.66
30724;BME280;17473;52.286;20.930;2023-03-23T13:36:43;99284.56;;;19.84;40.79
30724;BME280;17473;52.286;20.930;2023-03-23T13:39:32;99279.97;;;19.92;40.42
30724;BME280;17473;52.286;20.930;2023-03-23T13:49:57;99276.38;;;19.49;40.72
30724;BME280;17473;52.286;20.930;2023-03-23T13:55:29;99284.25;;;19.57;40.75
30724;BME280;17473;52.286;20.930;2023-03-23T14:03:25;99297.53;;;19.62;40.93
30724;BME280;17473;52.286;20.930;2023-03-23T14:06:14;99303.56;;;19.26;42.04
30724;BME280;17473;52.286;20.930;2023-03-23T14:08:47;99308.06;;;19.26;41.94
30724;BME280;17473;52.286;20.930;2023-03-23T14:11:25;99310.94;;;19.13;42.23
30724;BME280;17473;52.286;20.930;2023-03-23T14:14:23;99321.06;;;18.96;42.66
30724;BME280;17473;52.286;20.930;2023-03-23T14:16:51;99328.50;;;18.75;42.89
30724;BME280;17473;52.286;20.930;2023-03-23T14:19:29;99320.19;;;18.95;42.85
30724;BME280;17473;52.286;20.930;2023-03-23T14:21:59;99321.03;;;18.99;42.92
30724;BME280;17473;52.286;20.930;2023-03-23T14:24:32;99320.69;;;18.61;43.82
30724;BME280;17473;52.286;20.930;2023-03-23T14:27:09;99336.56;;;18.73;43.68
30724;BME280;17473;52.286;20.930;2023-03-23T14:29:36;99335.19;;;18.48;44.43
30724;BME280;17473;52.286;20.930;2023-03-23T14:32:05;99334.00;;;18.67;44.22
30724;BME280;17473;52.286;20.930;2023-03-23T14:34:33;99336.47;;;18.78;44.21
30724;BME280;17473;52.286;20.930;2023-03-23T14:37:00;99346.97;;;18.90;43.87
30724;BME280;17473;52.286;20.930;2023-03-23T14:39:29;99345.56;;;18.68;44.59
30724;BME280;17473;52.286;20.930;2023-03-23T14:42:03;99351.03;;;18.58;45.27
30724;BME280;17473;52.286;20.930;2023-03-23T14:44:49;99347.78;;;18.39;45.22
30724;BME280;17473;52.286;20.930;2023-03-23T14:47:38;99362.06;;;18.35;45.87
30724;BME280;17473;52.286;20.930;2023-03-23T14:50:36;99349.94;;;18.11;46.25
30724;BME280;17473;52.286;20.930;2023-03-23T14:53:37;99350.72;;;18.18;46.05
30724;BME280;17473;52.286;20.930;2023-03-23T14:56:15;99357.84;;;18.19;46.54
30724;BME280;17473;52.286;20.930;2023-03-23T14:58:47;99362.19;;;18.26;46.24
30724;BME280;17473;52.286;20.930;2023-03-23T15:04:13;99352.41;;;18.26;46.45
30724;BME280;17473;52.286;20.930;2023-03-23T15:06:48;99360.53;;;18.15;47.03
30724;BME280;17473;52.286;20.930;2023-03-23T15:09:21;99365.56;;;18.40;46.56
30724;BME280;17473;52.286;20.930;2023-03-23T15:14:32;99356.06;;;18.19;47.31
30724;BME280;17473;52.286;20.930;2023-03-23T15:17:00;99355.56;;;17.88;48.21